Dallas, Texas
Traffic Map
Current Weather Conditions
Dallas, Texas
Overcast
Overcast
53°
Feels Like: 53°
Wind Chill: 53° Ceiling: 1000
Heat Index: 53° Visibility: 10mi
Dew Point: 50° Wind: 6mph
Humidity: 89% Direction: 180° (S)
Pressure: 29.99in Gusts: 0mph
Raw Report DataKDAL 190326Z 18005KT 10SM BKN010 OVC028 12/10 A2999 RMK AO2 BKN010 V SCT T01170100
Traffic Incident Summary
Active as of:
Severity:
Category:
InformationThere was an issue retrieving the traffic information for this location. Please try a different location or try again shortly.
Advertisements
Track Severe Weather on mobile